createdAt,value
2023-01-13T00:00:51.529Z,11.28
2023-01-13T00:03:19.079Z,11.32
2023-01-13T00:05:46.324Z,11.59
2023-01-13T00:08:13.556Z,11.47
2023-01-13T00:10:41.086Z,11.43
2023-01-13T00:13:08.353Z,11.00
2023-01-13T00:15:35.697Z,11.13
2023-01-13T00:18:03.285Z,11.63
2023-01-13T00:20:30.521Z,11.35
2023-01-13T00:22:58.974Z,11.18
2023-01-13T00:25:26.496Z,10.31
2023-01-13T00:27:53.722Z,11.17
2023-01-13T00:30:20.951Z,11.03
2023-01-13T00:32:48.481Z,11.05
2023-01-13T00:35:15.722Z,11.00
2023-01-13T00:37:42.998Z,10.93
2023-01-13T00:40:10.968Z,11.03
2023-01-13T00:42:56.785Z,11.09
2023-01-13T00:45:24.424Z,11.16
2023-01-13T00:47:51.684Z,11.05
2023-01-13T00:50:18.959Z,10.89
2023-01-13T00:52:46.502Z,11.17
2023-01-13T00:55:14.700Z,11.07
2023-01-13T00:57:41.985Z,11.30
2023-01-13T01:00:09.896Z,11.03
2023-01-13T01:02:37.207Z,11.31
2023-01-13T01:05:04.606Z,11.24
2023-01-13T01:07:32.128Z,11.25
2023-01-13T01:09:59.358Z,10.82
2023-01-13T01:12:26.601Z,10.91
2023-01-13T01:14:54.111Z,11.08
2023-01-13T01:17:21.352Z,11.16
2023-01-13T01:19:48.585Z,11.37
2023-01-13T01:22:16.116Z,11.27
2023-01-13T01:24:43.377Z,11.31
2023-01-13T01:27:10.623Z,11.35
2023-01-13T01:29:38.193Z,11.49
2023-01-13T01:32:05.612Z,11.43
2023-01-13T01:34:32.939Z,11.61
2023-01-13T01:37:00.529Z,11.73
2023-01-13T01:39:27.778Z,11.39
2023-01-13T01:42:13.773Z,11.48
2023-01-13T01:44:52.799Z,11.56
2023-01-13T01:47:20.061Z,11.66
2023-01-13T01:49:47.655Z,11.90
2023-01-13T01:52:16.382Z,11.62
2023-01-13T01:54:59.008Z,11.58
2023-01-13T01:57:46.833Z,11.69
2023-01-13T02:00:14.399Z,11.75
2023-01-13T02:02:42.579Z,11.66
2023-01-13T02:05:09.956Z,11.55
2023-01-13T02:07:37.377Z,11.59
2023-01-13T02:10:06.605Z,11.47
2023-01-13T02:12:33.844Z,11.61
2023-01-13T02:15:08.471Z,11.79
2023-01-13T02:17:37.522Z,11.74
2023-01-13T02:20:20.206Z,11.88
2023-01-13T02:22:56.819Z,11.93
2023-01-13T02:25:33.440Z,12.01
2023-01-13T02:28:21.337Z,11.90
2023-01-13T02:31:26.624Z,11.99
2023-01-13T02:33:54.300Z,11.90
2023-01-13T02:36:27.476Z,11.96
2023-01-13T02:38:57.245Z,12.01
2023-01-13T02:41:47.212Z,12.02
2023-01-13T02:44:15.125Z,12.04
2023-01-13T02:46:51.875Z,12.03
2023-01-13T02:49:24.938Z,11.97
2023-01-13T02:51:52.275Z,11.76
2023-01-13T02:54:21.399Z,11.99
2023-01-13T02:56:49.070Z,11.82
2023-01-13T02:59:16.332Z,11.84
2023-01-13T03:01:43.933Z,11.83
2023-01-13T03:04:14.773Z,11.91
2023-01-13T03:06:46.877Z,12.00
2023-01-13T03:09:19.543Z,11.83
2023-01-13T03:12:09.791Z,12.07
2023-01-13T03:14:40.553Z,12.03
2023-01-13T03:17:21.062Z,11.79
2023-01-13T03:20:08.135Z,11.82
2023-01-13T03:22:38.582Z,12.02
2023-01-13T03:25:12.540Z,11.82
2023-01-13T03:27:45.361Z,11.66
2023-01-13T03:30:15.871Z,11.51
2023-01-13T03:32:43.815Z,11.59
2023-01-13T03:35:14.082Z,11.41
2023-01-13T03:37:42.766Z,11.48
2023-01-13T03:40:14.631Z,11.68
2023-01-13T03:43:02.609Z,11.51
2023-01-13T03:45:29.960Z,11.31
2023-01-13T03:47:57.415Z,11.60
2023-01-13T03:50:27.398Z,11.81
2023-01-13T03:53:18.155Z,11.87
2023-01-13T03:55:47.201Z,11.75
2023-01-13T03:58:21.605Z,11.77
2023-01-13T04:00:55.355Z,11.95
2023-01-13T04:03:27.395Z,11.86
2023-01-13T04:05:56.550Z,11.93
2023-01-13T04:08:27.254Z,11.82
2023-01-13T04:11:00.530Z,11.88
2023-01-13T04:13:29.066Z,11.92
2023-01-13T04:15:56.281Z,12.02
2023-01-13T04:18:24.558Z,12.00
2023-01-13T04:20:52.556Z,11.91
2023-01-13T04:23:20.397Z,11.36
2023-01-13T04:25:47.756Z,11.82
2023-01-13T04:28:15.396Z,11.96
2023-01-13T04:30:42.759Z,11.94
2023-01-13T04:33:10.237Z,11.79
2023-01-13T04:35:37.785Z,11.92
2023-01-13T04:38:07.394Z,12.02
2023-01-13T04:40:34.543Z,12.03
2023-01-13T04:43:02.054Z,12.02
2023-01-13T04:45:29.200Z,12.03
2023-01-13T04:47:56.414Z,11.95
2023-01-13T04:50:23.871Z,11.97
2023-01-13T04:52:51.234Z,11.80
2023-01-13T04:55:18.835Z,11.79
2023-01-13T04:57:46.365Z,11.97
2023-01-13T05:00:14.876Z,11.99
2023-01-13T05:02:42.007Z,11.94
2023-01-13T05:05:09.674Z,11.89
2023-01-13T05:07:36.864Z,12.08
2023-01-13T05:10:04.147Z,12.07
2023-01-13T05:12:50.411Z,12.02
2023-01-13T05:15:36.230Z,12.01
2023-01-13T05:18:03.729Z,11.99
2023-01-13T05:20:30.904Z,11.75
2023-01-13T05:23:16.705Z,12.08
2023-01-13T05:25:45.316Z,12.03
2023-01-13T05:28:14.741Z,11.97
2023-01-13T05:30:43.398Z,11.83
2023-01-13T05:33:11.016Z,11.88
2023-01-13T05:35:41.799Z,12.00
2023-01-13T05:38:08.968Z,12.05
2023-01-13T05:40:56.134Z,12.11
2023-01-13T05:43:24.823Z,12.22
2023-01-13T05:45:54.371Z,11.38
2023-01-13T05:48:22.032Z,11.39
2023-01-13T05:50:53.898Z,11.27
2023-01-13T05:53:22.176Z,11.49
2023-01-13T05:55:49.704Z,11.64
2023-01-13T05:58:17.346Z,11.77
2023-01-13T06:00:44.949Z,11.52
2023-01-13T06:03:12.602Z,11.15
2023-01-13T06:05:40.069Z,11.27
2023-01-13T06:08:07.504Z,11.42
2023-01-13T06:10:35.321Z,11.25
2023-01-13T06:13:02.806Z,11.20
2023-01-13T06:15:29.962Z,11.42
2023-01-13T06:17:57.382Z,11.30
2023-01-13T06:20:24.833Z,11.45
2023-01-13T06:22:52.361Z,11.22
2023-01-13T06:25:22.041Z,10.88
2023-01-13T06:27:49.650Z,10.96
2023-01-13T06:30:17.536Z,11.00
2023-01-13T06:32:46.749Z,10.96
2023-01-13T06:35:16.066Z,11.18
2023-01-13T06:37:43.500Z,10.90
2023-01-13T06:40:11.265Z,11.10
2023-01-13T06:42:57.068Z,11.27
2023-01-13T06:45:24.580Z,11.22
2023-01-13T06:47:52.007Z,11.34
2023-01-13T06:50:19.147Z,11.15
2023-01-13T06:52:46.595Z,10.27
2023-01-13T06:55:13.765Z,9.93
2023-01-13T06:58:06.942Z,10.57
2023-01-13T07:00:40.191Z,10.98
2023-01-13T07:03:11.627Z,10.67
2023-01-13T07:05:39.188Z,10.62
2023-01-13T07:08:06.601Z,10.97
2023-01-13T07:10:34.313Z,11.39
2023-01-13T07:13:20.852Z,11.34
2023-01-13T07:15:55.539Z,11.14
2023-01-13T07:18:23.107Z,11.41
2023-01-13T07:20:53.939Z,11.40
2023-01-13T07:23:21.213Z,11.25
2023-01-13T07:25:49.022Z,9.20
2023-01-13T07:28:16.374Z,8.91
2023-01-13T07:30:43.600Z,10.10
2023-01-13T07:33:11.048Z,10.69
2023-01-13T07:35:39.295Z,10.58
2023-01-13T07:38:06.671Z,10.68
2023-01-13T07:40:34.141Z,10.88
2023-01-13T07:43:19.980Z,10.38
2023-01-13T07:45:47.454Z,11.08
2023-01-13T07:48:14.621Z,11.22
2023-01-13T07:50:44.055Z,10.16
2023-01-13T07:53:11.692Z,9.94
2023-01-13T07:55:45.126Z,10.26
2023-01-13T07:58:12.636Z,10.95
2023-01-13T08:00:39.833Z,11.20
2023-01-13T08:03:07.387Z,10.93
2023-01-13T08:05:35.100Z,10.79
2023-01-13T08:08:02.320Z,10.95
2023-01-13T08:10:29.769Z,10.42
2023-01-13T08:13:15.551Z,10.52
2023-01-13T08:15:43.303Z,10.57
2023-01-13T08:18:10.712Z,10.64
2023-01-13T08:20:37.853Z,10.91
2023-01-13T08:23:07.246Z,10.31
2023-01-13T08:25:34.740Z,9.85
2023-01-13T08:28:01.884Z,10.00
2023-01-13T08:30:29.489Z,9.30
2023-01-13T08:32:56.684Z,9.69
2023-01-13T08:35:23.959Z,8.19
2023-01-13T08:37:51.497Z,8.95
2023-01-13T08:40:19.175Z,9.90
2023-01-13T08:42:48.499Z,8.82
2023-01-13T08:45:16.235Z,8.42
2023-01-13T08:47:43.407Z,7.74
2023-01-13T08:50:12.744Z,8.71
2023-01-13T08:52:40.334Z,7.93
2023-01-13T08:55:07.714Z,7.62
2023-01-13T08:57:34.973Z,8.17
2023-01-13T09:00:03.830Z,9.03
2023-01-13T09:02:31.126Z,9.57
2023-01-13T09:05:00.399Z,8.68
2023-01-13T09:07:27.809Z,8.43
2023-01-13T09:09:56.842Z,8.95
2023-01-13T09:12:42.587Z,9.24
2023-01-13T09:15:10.640Z,9.47
2023-01-13T09:17:37.844Z,9.13
2023-01-13T09:20:05.497Z,9.03
2023-01-13T09:22:35.578Z,9.77
2023-01-13T09:25:02.732Z,8.86
2023-01-13T09:27:29.956Z,7.99
2023-01-13T09:29:57.447Z,8.31
2023-01-13T09:32:24.642Z,8.42
2023-01-13T09:35:00.938Z,8.04
2023-01-13T09:37:38.308Z,9.01
2023-01-13T09:40:07.063Z,8.67
2023-01-13T09:43:04.515Z,8.97
2023-01-13T09:45:34.432Z,8.28
2023-01-13T09:48:04.283Z,9.14
2023-01-13T09:50:34.224Z,9.74
2023-01-13T09:53:01.727Z,7.96
2023-01-13T09:55:37.898Z,8.14
2023-01-13T09:58:15.225Z,8.98
2023-01-13T10:01:01.130Z,8.21
2023-01-13T10:03:29.754Z,7.48
2023-01-13T10:06:09.124Z,7.86
2023-01-13T10:08:39.913Z,7.62
2023-01-13T10:11:27.752Z,7.61
2023-01-13T10:13:59.294Z,8.95
2023-01-13T10:16:31.392Z,9.12
2023-01-13T10:19:06.759Z,8.19
2023-01-13T10:21:52.683Z,7.95
2023-01-13T10:24:26.029Z,8.11
2023-01-13T10:27:01.581Z,7.59
2023-01-13T10:29:29.650Z,8.69
2023-01-13T10:31:57.453Z,8.06
2023-01-13T10:34:24.831Z,9.34
2023-01-13T10:37:10.767Z,9.66
2023-01-13T10:39:41.792Z,9.43
2023-01-13T10:42:16.520Z,8.91
2023-01-13T10:44:50.644Z,9.37
2023-01-13T10:47:25.718Z,7.89
2023-01-13T10:50:01.931Z,8.29
2023-01-13T10:52:30.523Z,7.31
2023-01-13T10:54:57.979Z,6.97
2023-01-13T10:57:26.930Z,7.39
2023-01-13T10:59:54.845Z,8.89
2023-01-13T11:02:29.602Z,8.72
2023-01-13T11:04:58.195Z,7.94
2023-01-13T11:07:43.979Z,8.52
2023-01-13T11:10:27.688Z,9.20
2023-01-13T11:13:05.741Z,8.43
2023-01-13T11:15:45.472Z,7.95
2023-01-13T11:18:18.621Z,6.97
2023-01-13T11:20:47.790Z,7.06
2023-01-13T11:23:17.959Z,6.61
2023-01-13T11:25:46.493Z,7.41
2023-01-13T11:28:13.599Z,7.47
2023-01-13T11:30:44.858Z,6.83
2023-01-13T11:33:15.313Z,8.36
2023-01-13T11:35:42.425Z,8.80
2023-01-13T11:38:24.862Z,8.36
2023-01-13T11:40:52.308Z,8.49
2023-01-13T11:43:40.660Z,8.24
2023-01-13T11:46:08.270Z,7.82
2023-01-13T11:48:36.007Z,7.73
2023-01-13T11:51:16.153Z,8.23
2023-01-13T11:53:49.359Z,7.28
2023-01-13T11:56:35.165Z,7.06
2023-01-13T11:59:11.604Z,8.13
2023-01-13T12:01:45.055Z,7.90
2023-01-13T12:04:30.889Z,8.86
2023-01-13T12:07:13.046Z,8.28
2023-01-13T12:09:49.959Z,7.43
2023-01-13T12:12:33.065Z,7.99
2023-01-13T12:15:15.790Z,8.70
2023-01-13T12:17:54.901Z,9.31
2023-01-13T12:20:26.645Z,9.50
2023-01-13T12:22:54.115Z,9.30
2023-01-13T12:25:23.569Z,7.36
2023-01-13T12:28:15.741Z,7.36
2023-01-13T12:30:50.491Z,7.98
2023-01-13T12:33:21.052Z,9.08
2023-01-13T12:35:50.731Z,8.74
2023-01-13T12:38:26.609Z,8.78
2023-01-13T12:41:05.868Z,8.12
2023-01-13T12:43:51.694Z,8.54
2023-01-13T12:46:18.925Z,8.10
2023-01-13T12:48:49.122Z,7.68
2023-01-13T12:51:25.390Z,9.19
2023-01-13T12:53:53.163Z,8.83
2023-01-13T12:56:20.833Z,8.64
2023-01-13T12:58:47.969Z,8.34
2023-01-13T13:01:15.659Z,8.77
2023-01-13T13:03:42.896Z,8.62
2023-01-13T13:06:12.907Z,9.10
2023-01-13T13:09:03.311Z,8.28
2023-01-13T13:11:52.705Z,8.84
2023-01-13T13:14:44.270Z,9.02
2023-01-13T13:17:29.553Z,8.68
2023-01-13T13:19:57.584Z,9.22
2023-01-13T13:22:27.910Z,9.12
2023-01-13T13:24:55.003Z,9.13
2023-01-13T13:27:25.511Z,9.05
2023-01-13T13:29:53.323Z,7.85
2023-01-13T13:32:35.764Z,7.64
2023-01-13T13:35:09.577Z,7.98
2023-01-13T13:38:14.254Z,8.97
2023-01-13T13:41:01.552Z,9.50
2023-01-13T13:43:47.312Z,10.20
2023-01-13T13:46:43.670Z,9.96
2023-01-13T13:49:11.887Z,9.87
2023-01-13T13:51:41.811Z,10.32
2023-01-13T13:54:10.874Z,10.12
2023-01-13T13:56:38.742Z,9.84
2023-01-13T13:59:08.609Z,10.07
2023-01-13T14:01:37.158Z,10.28
2023-01-13T14:04:30.042Z,9.93
2023-01-13T14:06:58.351Z,9.83
2023-01-13T14:09:28.533Z,10.08
2023-01-13T14:12:00.159Z,10.65
2023-01-13T14:14:27.715Z,11.16
2023-01-13T14:16:55.140Z,10.54
2023-01-13T14:19:26.973Z,10.67
2023-01-13T14:21:54.414Z,9.66
2023-01-13T14:24:22.578Z,11.10
2023-01-13T14:26:52.047Z,11.44
2023-01-13T14:29:22.972Z,11.17
2023-01-13T14:31:50.499Z,11.76
2023-01-13T14:34:31.234Z,11.81
2023-01-13T14:37:01.227Z,12.59
2023-01-13T14:39:36.913Z,12.16
2023-01-13T14:42:10.296Z,11.82
2023-01-13T14:44:37.473Z,10.96
2023-01-13T14:47:17.070Z,10.20
2023-01-13T14:49:51.688Z,10.06
2023-01-13T14:52:22.545Z,11.52
2023-01-13T14:54:49.979Z,10.54
2023-01-13T14:57:24.438Z,10.40
2023-01-13T14:59:56.168Z,10.74
2023-01-13T15:02:26.337Z,11.12
2023-01-13T15:04:54.348Z,10.07
2023-01-13T15:07:24.739Z,10.62
2023-01-13T15:10:01.969Z,10.05
2023-01-13T15:12:32.430Z,9.42
2023-01-13T15:14:59.618Z,8.78
2023-01-13T15:17:26.849Z,9.12
2023-01-13T15:19:54.263Z,8.59
2023-01-13T15:22:22.585Z,9.45
2023-01-13T15:24:50.184Z,9.92
2023-01-13T15:27:25.887Z,10.41
2023-01-13T15:29:53.048Z,10.29
2023-01-13T15:32:20.945Z,10.54
2023-01-13T15:34:48.433Z,10.36
2023-01-13T15:37:16.904Z,10.12
2023-01-13T15:39:44.377Z,10.53
2023-01-13T15:42:33.216Z,9.29
2023-01-13T15:45:19.308Z,8.27
2023-01-13T15:47:46.448Z,8.17
2023-01-13T15:50:15.192Z,8.28
2023-01-13T15:52:42.327Z,9.27
2023-01-13T15:55:09.778Z,8.19
2023-01-13T15:57:38.284Z,9.09
2023-01-13T16:00:08.097Z,9.32
2023-01-13T16:02:35.554Z,8.47
2023-01-13T16:05:02.851Z,9.72
2023-01-13T16:07:30.079Z,8.99
2023-01-13T16:09:57.743Z,9.33
2023-01-13T16:12:24.880Z,9.81
2023-01-13T16:14:52.026Z,10.61
2023-01-13T16:17:20.438Z,10.42
2023-01-13T16:19:47.606Z,10.11
2023-01-13T16:22:15.232Z,9.92
2023-01-13T16:24:42.781Z,9.70
2023-01-13T16:27:16.982Z,9.91
2023-01-13T16:29:44.936Z,9.63
2023-01-13T16:32:12.129Z,9.44
2023-01-13T16:34:39.350Z,9.82
2023-01-13T16:37:11.189Z,10.08
2023-01-13T16:39:38.347Z,9.67
2023-01-13T16:42:05.529Z,9.60
2023-01-13T16:44:35.355Z,9.99
2023-01-13T16:47:02.524Z,9.66
2023-01-13T16:49:29.683Z,8.55
2023-01-13T16:51:57.230Z,10.38
2023-01-13T16:54:24.457Z,10.76
2023-01-13T16:56:51.729Z,10.60
2023-01-13T16:59:19.269Z,10.39
2023-01-13T17:01:46.819Z,10.09
2023-01-13T17:04:18.687Z,9.00
2023-01-13T17:07:00.256Z,9.94
2023-01-13T17:09:28.125Z,9.38
2023-01-13T17:11:56.425Z,9.36
2023-01-13T17:14:24.167Z,9.67
2023-01-13T17:16:53.081Z,9.23
2023-01-13T17:19:22.690Z,8.97
2023-01-13T17:21:51.521Z,9.96
2023-01-13T17:24:18.801Z,9.60
2023-01-13T17:26:49.550Z,10.06
2023-01-13T17:29:22.450Z,9.87
2023-01-13T17:31:50.986Z,10.34
2023-01-13T17:34:18.939Z,10.64
2023-01-13T17:36:46.660Z,10.60
2023-01-13T17:39:19.169Z,10.17
2023-01-13T17:41:47.244Z,10.35
2023-01-13T17:44:15.781Z,10.63
2023-01-13T17:46:43.318Z,10.77
2023-01-13T17:49:14.184Z,10.39
2023-01-13T17:51:42.044Z,11.02
2023-01-13T17:54:12.501Z,11.42
2023-01-13T17:56:40.462Z,11.82
2023-01-13T17:59:10.229Z,12.01
2023-01-13T18:01:38.116Z,11.83
2023-01-13T18:04:07.009Z,12.55
2023-01-13T18:06:34.747Z,12.88
2023-01-13T18:09:02.239Z,12.57
2023-01-13T18:11:30.569Z,12.83
2023-01-13T18:13:58.404Z,13.10
2023-01-13T18:16:27.153Z,13.18
2023-01-13T18:19:19.586Z,13.08
2023-01-13T18:22:08.265Z,12.96
2023-01-13T18:24:55.542Z,13.20
2023-01-13T18:27:27.417Z,13.32
2023-01-13T18:29:56.519Z,13.27
2023-01-13T18:32:25.157Z,13.29
2023-01-13T18:35:04.766Z,12.98
2023-01-13T18:37:35.888Z,12.56
2023-01-13T18:40:03.999Z,11.94
2023-01-13T18:42:50.726Z,12.45
2023-01-13T18:45:24.646Z,12.75
2023-01-13T18:47:53.011Z,13.09
2023-01-13T18:50:21.238Z,13.35
2023-01-13T18:52:48.743Z,11.71
2023-01-13T18:55:17.593Z,12.46
2023-01-13T18:57:48.615Z,11.61
2023-01-13T19:00:17.668Z,12.31
2023-01-13T19:02:50.821Z,12.81
2023-01-13T19:05:18.360Z,12.75
2023-01-13T19:07:53.112Z,12.95
2023-01-13T19:10:23.303Z,12.78
2023-01-13T19:12:51.413Z,12.75
2023-01-13T19:15:19.251Z,12.22
2023-01-13T19:17:48.360Z,12.15
2023-01-13T19:20:16.826Z,11.68
2023-01-13T19:22:47.611Z,11.04
2023-01-13T19:25:15.326Z,11.25
2023-01-13T19:27:43.223Z,11.84
2023-01-13T19:30:11.170Z,11.59
2023-01-13T19:32:39.118Z,11.46
2023-01-13T19:35:09.193Z,12.37
2023-01-13T19:37:37.108Z,12.54
2023-01-13T19:40:09.342Z,12.15
2023-01-13T19:42:57.198Z,12.23
2023-01-13T19:45:34.153Z,12.44
2023-01-13T19:48:02.631Z,12.75
2023-01-13T19:50:30.687Z,12.63
2023-01-13T19:52:58.841Z,13.10
2023-01-13T19:55:26.715Z,13.14
2023-01-13T19:57:54.485Z,13.33
2023-01-13T20:00:22.175Z,13.43
2023-01-13T20:02:52.134Z,13.61
2023-01-13T20:05:26.052Z,13.81
2023-01-13T20:07:54.580Z,13.86
2023-01-13T20:10:23.771Z,13.82
2023-01-13T20:12:52.273Z,14.00
2023-01-13T20:15:20.695Z,13.41
2023-01-13T20:17:48.887Z,13.08
2023-01-13T20:20:18.775Z,13.72
2023-01-13T20:22:46.799Z,13.82
2023-01-13T20:25:17.128Z,14.17
2023-01-13T20:27:47.441Z,14.21
2023-01-13T20:30:16.089Z,13.99
2023-01-13T20:32:44.185Z,13.58
2023-01-13T20:35:11.863Z,13.76
2023-01-13T20:37:47.795Z,13.72
2023-01-13T20:40:16.545Z,13.99
2023-01-13T20:42:45.317Z,14.15
2023-01-13T20:45:17.560Z,14.31
2023-01-13T20:47:46.433Z,14.38
2023-01-13T20:50:15.312Z,14.47
2023-01-13T20:52:44.042Z,14.34
2023-01-13T20:55:12.156Z,14.03
2023-01-13T20:57:41.141Z,13.98
2023-01-13T21:00:10.645Z,12.43
2023-01-13T21:02:38.867Z,13.23
2023-01-13T21:05:06.893Z,13.41
2023-01-13T21:07:34.744Z,13.86
2023-01-13T21:10:02.785Z,13.67
2023-01-13T21:12:48.971Z,13.83
2023-01-13T21:15:17.096Z,13.72
2023-01-13T21:18:03.246Z,13.63
2023-01-13T21:20:33.340Z,13.21
2023-01-13T21:23:01.410Z,13.16
2023-01-13T21:25:29.211Z,12.70
2023-01-13T21:28:03.361Z,11.71
2023-01-13T21:30:31.014Z,11.52
2023-01-13T21:33:00.768Z,12.01
2023-01-13T21:35:28.436Z,9.92
2023-01-13T21:37:55.776Z,10.07
2023-01-13T21:40:23.465Z,9.93
2023-01-13T21:43:09.629Z,8.10
2023-01-13T21:45:56.924Z,9.15
2023-01-13T21:48:24.387Z,9.21
2023-01-13T21:50:52.087Z,8.86
2023-01-13T21:53:19.384Z,9.34
2023-01-13T21:55:49.917Z,9.10
2023-01-13T21:58:17.454Z,10.10
2023-01-13T22:00:44.810Z,10.91
2023-01-13T22:03:12.744Z,11.31
2023-01-13T22:05:39.957Z,11.67
2023-01-13T22:08:07.372Z,12.30
2023-01-13T22:10:34.832Z,11.71
2023-01-13T22:13:24.842Z,12.20
2023-01-13T22:15:52.360Z,12.28
2023-01-13T22:18:19.508Z,12.46
2023-01-13T22:20:46.738Z,12.25
2023-01-13T22:23:14.168Z,11.69
2023-01-13T22:25:41.310Z,11.49
2023-01-13T22:28:09.350Z,12.18
2023-01-13T22:30:37.094Z,12.17
2023-01-13T22:33:04.317Z,12.72
2023-01-13T22:35:31.480Z,13.18
2023-01-13T22:37:58.915Z,13.35
2023-01-13T22:40:26.093Z,13.00
2023-01-13T22:42:53.233Z,12.33
2023-01-13T22:45:20.669Z,12.43
2023-01-13T22:47:49.651Z,12.77
2023-01-13T22:50:20.718Z,13.02
2023-01-13T22:52:48.227Z,13.06
2023-01-13T22:55:15.456Z,13.93
2023-01-13T22:57:48.158Z,13.42
2023-01-13T23:00:18.936Z,12.25
2023-01-13T23:02:46.614Z,12.25
2023-01-13T23:05:13.985Z,12.66
2023-01-13T23:07:41.481Z,12.96
2023-01-13T23:10:08.976Z,12.16
2023-01-13T23:12:36.160Z,12.27
2023-01-13T23:15:22.789Z,12.05
2023-01-13T23:17:50.390Z,12.93
2023-01-13T23:20:17.831Z,13.38
2023-01-13T23:22:45.013Z,12.82
2023-01-13T23:25:12.185Z,13.14
2023-01-13T23:27:42.180Z,13.36
2023-01-13T23:30:09.536Z,13.66
2023-01-13T23:32:36.707Z,13.95
2023-01-13T23:35:04.590Z,13.83
2023-01-13T23:37:31.743Z,13.96
2023-01-13T23:39:58.905Z,12.05
2023-01-13T23:42:26.354Z,13.44
2023-01-13T23:44:53.498Z,13.72
2023-01-13T23:47:22.332Z,13.73
2023-01-13T23:49:49.816Z,14.05
2023-01-13T23:52:18.079Z,14.07
2023-01-13T23:54:45.228Z,13.68
2023-01-13T23:57:12.650Z,13.97
2023-01-13T23:59:39.806Z,14.00
